Latest Weather Observations for Sydney Airport

IDN60901

Issued at 9:21 pm EDT Friday 6 December 2019 (issued every 10 minutes, with the page automatically refreshed every 10 minutes)

About weather observations | Map of Sydney area stations | Latest observations for Sydney area | Other Formats
Station Details ID: 066037 Name: SYDNEY AIRPORT AMO Lat: -33.95 Lon: 151.17 Height: 6.0 m
Data from the previous 72 hours. | See also: Recent months at Sydney Airport
Date/Time
EDT
Temp
°C
App
Temp
°C
Dew
Point
°C
Rel
Hum
%
Delta-T
°C
Wind Press
QNH
hPa
Press
MSL
hPa
Rain since
9am
mm
Dir  Spd
km/h
Gust
km/h
Spd
kts
Gust
kts
06/09:00pm 20.3 17.7 17.7 85 1.6 SE 28 37 15 20 1009.6 1009.6 0.0
06/08:30pm 20.5 17.5 17.7 84 1.7 SSE 30 37 16 20 1009.1 1009.1 0.0
06/08:00pm 20.8 17.4 18.2 85 1.6 SSE 33 41 18 22 1008.6 1008.6 0.0
06/07:30pm 20.9 17.9 19.0 89 1.2 SSE 33 44 18 24 1007.9 1007.9 0.0
06/07:00pm 20.9 18.1 19.0 89 1.2 S 32 37 17 20 1006.7 1006.7 0.0
06/06:30pm 21.8 20.3 17.8 78 2.5 SSE 22 35 12 19 1005.4 1005.4 0.0
06/06:00pm 23.3 22.0 18.2 73 3.2 ENE 22 26 12 14 1003.9 1003.9 0.0
06/05:30pm 24.6 22.7 15.8 58 5.3 ESE 20 26 11 14 1003.7 1003.7 0.0
06/05:00pm 27.6 25.9 14.6 45 7.9 NNE 17 22 9 12 1003.1 1003.1 0.0
06/04:30pm 27.2 25.7 15.2 47 7.3 NNE 17 20 9 11 1003.1 1003.1 0.0
06/04:00pm 27.4 26.7 14.4 45 7.8 ENE 11 15 6 8 1003.3 1003.3 0.0
06/03:30pm 27.5 26.0 15.2 47 7.5 ENE 17 19 9 10 1003.2 1003.2 0.0
06/03:00pm 27.6 27.4 17.5 54 6.4 ENE 15 17 8 9 1003.4 1003.4 0.0
06/02:30pm 27.6 27.4 16.6 51 6.8 NE 13 15 7 8 1003.7 1003.7 0.0
06/02:00pm 26.1 26.0 16.9 57 5.7 NE 13 19 7 10 1004.1 1004.1 0.0
06/01:30pm 24.9 24.2 16.3 59 5.3 NE 15 19 8 10 1004.5 1004.5 0.0
06/01:00pm 23.9 23.8 16.9 65 4.3 NE 13 20 7 11 1005.0 1005.0 0.0
06/12:30pm 23.8 23.2 16.6 64 4.4 ENE 15 19 8 10 1005.6 1005.6 0.0
06/12:00pm 24.0 23.8 16.8 64 4.4 E 13 15 7 8 1005.9 1005.9 0.0
06/11:30am 25.2 24.9 16.4 58 5.4 ESE 13 17 7 9 1005.9 1005.9 0.0
06/11:00am 23.9 23.5 16.2 62 4.7 ESE 13 15 7 8 1006.2 1006.2 0.0
06/10:30am 23.5 23.1 16.3 64 4.4 SE 13 17 7 9 1006.4 1006.4 0.0
06/10:00am 24.2 22.6 14.0 53 6.0 SSE 15 19 8 10 1006.5 1006.5 0.0
06/09:30am 24.4 25.7 15.1 56 5.6 E 2 11 1 6 1006.7 1006.7 0.0
06/09:00am 23.4 25.2 15.5 61 4.8 CALM 0 0 0 0 1007.0 1007.0 0.0
06/08:30am 22.5 23.8 16.1 67 3.9 N 4 11 2 6 1007.4 1007.4 0.0
06/08:00am 20.9 22.7 15.4 71 3.3 CALM 0 0 0 0 1007.5 1007.5 0.0
06/07:30am 20.8 21.5 16.0 74 2.9 W 7 13 4 7 1007.7 1007.7 0.0
06/07:00am 19.2 20.6 15.5 79 2.2 NNW 2 9 1 5 1007.4 1007.4 0.0
06/06:30am 19.3 21.2 15.8 80 2.1 CALM 0 2 0 1 1007.3 1007.3 0.0
06/06:00am 18.1 20.0 15.7 86 1.4 CALM 0 0 0 0 1007.0 1007.0 0.0
06/05:30am 18.2 18.4 15.8 86 1.4 SSE 9 9 5 5 1006.8 1006.8 0.0
06/05:00am 18.1 17.5 15.7 86 1.4 SSE 13 15 7 8 1006.7 1006.7 0.0
06/04:30am 18.3 17.7 15.7 85 1.5 SSE 13 17 7 9 1006.6 1006.6 0.0
06/04:00am 18.3 17.3 15.6 84 1.6 SSE 15 19 8 10 1006.5 1006.5 0.0
06/03:30am 18.5 16.7 15.6 83 1.7 SSE 19 22 10 12 1006.6 1006.6 0.0
06/03:00am 18.7 16.4 15.8 83 1.7 SSE 22 30 12 16 1006.7 1006.7 0.0
06/02:30am 18.9 15.6 16.0 83 1.7 S 28 33 15 18 1006.8 1006.8 0.0
06/02:11am 18.9 16.4 16.1 84 1.7 SSE 24 30 13 16 1006.8 1006.8 0.0
06/02:06am 18.9 16.4 16.1 84 1.7 SSE 24 30 13 16 1006.8 1006.8 0.0
06/02:00am 18.9 16.4 16.1 84 1.7 SSE 24 30 13 16 1006.9 1006.9 0.0
06/01:30am 19.1 16.4 16.7 86 1.4 SSE 26 32 14 17 1007.0 1007.0 0.0
06/01:00am 19.2 15.8 16.8 86 1.5 S 30 35 16 19 1007.0 1007.0 0.0
06/12:30am 19.4 16.6 17.2 87 1.3 S 28 37 15 20 1007.2 1007.2 0.0
06/12:29am 19.6 16.8 17.4 87 1.3 S 28 37 15 20 1007.2 1007.2 0.0
06/12:00am 19.3 15.7 17.1 87 1.3 S 32 44 17 24 1007.3 1007.3 0.0
 
Date/Time
EDT
Temp
°C
App
Temp
°C
Dew
Point
°C
Rel
Hum
%
Delta-T
°C
Wind Press
QNH
hPa
Press
MSL
hPa
Rain since
9am
mm
Dir  Spd
km/h
Gust
km/h
Spd
kts
Gust
kts
05/11:30pm 19.7 16.2 17.8 89 1.2 S 33 48 18 26 1007.3 1007.3 0.0
05/11:00pm 19.9 16.4 17.9 88 1.2 S 33 43 18 23 1007.1 1007.1 0.0
05/10:30pm 20.9 17.1 18.1 84 1.7 S 35 43 19 23 1006.7 1006.7 0.0
05/10:22pm 21.3 17.3 17.5 79 2.3 S 35 54 19 29 1006.5 1006.5 0.0
05/10:13pm 26.3 21.3 4.7 25 10.9 SW 20 54 11 29 1006.2 1006.2 0.0
05/10:00pm 27.6 22.6 -1.3 15 13.3 WSW 15 20 8 11 1005.9 1005.9 0.0
05/09:30pm 28.0 22.1 -1.0 15 13.4 W 20 24 11 13 1005.5 1005.5 0.0
05/09:00pm 28.7 23.4 -0.5 15 13.7 W 17 26 9 14 1005.1 1005.1 0.0
05/08:30pm 29.3 23.6 -0.9 14 14.1 WNW 19 22 10 12 1004.7 1004.7 0.0
05/08:00pm 29.6 25.2 0.2 15 14.1 W 13 19 7 10 1004.4 1004.4 0.0
05/07:30pm 30.7 26.9 -0.8 13 14.9 NW 9 17 5 9 1004.0 1004.0 0.0
05/07:00pm 28.5 28.0 7.7 27 11.3 CALM 0 0 0 0 1003.7 1003.7 0.0
05/06:30pm 26.3 26.4 11.6 40 8.4 ENE 2 7 1 4 1003.3 1003.3 0.0
05/06:00pm 30.3 29.9 8.1 25 12.2 CALM 0 9 0 5 1003.0 1003.0 0.0
05/05:30pm 30.7 28.1 5.9 21 13.1 E 9 11 5 6 1002.9 1002.9 0.0
05/05:11pm 30.6 27.8 5.1 20 13.3 E 9 11 5 6 1002.9 1002.9 0.0
05/05:00pm 31.1 27.6 5.5 20 13.6 E 13 17 7 9 1003.0 1003.0 0.0
05/04:30pm 30.2 27.1 5.5 21 13.0 ESE 11 13 6 7 1003.2 1003.2 0.0
05/04:00pm 32.0 29.4 1.2 14 15.3 ESE 4 11 2 6 1003.5 1003.5 0.0
05/03:30pm 30.7 27.8 4.4 19 13.6 ESE 9 19 5 10 1003.6 1003.6 0.0
05/03:00pm 32.6 26.4 -0.5 12 16.0 WSW 22 32 12 17 1003.9 1003.9 0.0
05/02:30pm 33.3 26.1 -2.4 10 16.7 W 26 35 14 19 1004.2 1004.2 0.0
05/02:16pm 33.2 25.9 -2.5 10 16.7 W 26 37 14 20 1004.3 1004.3 0.0
05/02:00pm 33.5 27.4 -2.3 10 16.9 W 20 30 11 16 1004.5 1004.5 0.0
05/01:30pm 32.8 25.5 -2.8 10 16.5 W 26 33 14 18 1005.1 1005.1 0.0
05/01:00pm 32.8 25.5 -0.3 12 16.1 NW 28 35 15 19 1005.5 1005.5 0.0
05/12:30pm 31.2 24.7 0.6 14 14.9 WNW 24 33 13 18 1006.2 1006.2 0.0
05/12:00pm 31.0 25.1 1.4 15 14.6 WNW 22 33 12 18 1006.8 1006.8 0.0
05/11:50am 30.6 24.5 2.8 17 14.0 NW 24 37 13 20 1007.0 1007.0 0.0
05/11:30am 30.7 25.4 2.9 17 14.0 NW 20 39 11 21 1007.4 1007.4 0.0
05/11:00am 28.6 24.0 3.5 20 12.6 NW 17 26 9 14 1007.8 1007.8 0.0
05/10:30am 28.3 23.7 3.9 21 12.3 NW 17 26 9 14 1008.3 1008.3 0.0
05/10:00am 26.7 21.6 3.2 22 11.6 NW 19 26 10 14 1008.8 1008.8 0.0
05/09:30am 26.7 22.5 3.9 23 11.4 NW 15 28 8 15 1009.2 1009.2 0.0
05/09:00am 25.5 21.4 4.6 26 10.5 NW 15 19 8 10 1009.4 1009.4 0.0
05/08:30am 24.3 21.0 6.6 32 9.1 NW 13 19 7 10 1009.7 1009.7 0.0
05/08:00am 22.4 19.8 9.2 43 7.1 NW 13 19 7 10 1009.7 1009.7 0.0
05/07:30am 21.3 20.3 12.2 56 5.1 NNW 9 17 5 9 1009.7 1009.7 0.0
05/07:00am 19.4 18.9 13.8 70 3.2 NNW 9 13 5 7 1009.4 1009.4 0.0
05/06:30am 18.5 18.1 14.2 76 2.5 NW 9 13 5 7 1009.3 1009.3 0.0
05/06:00am 17.4 17.7 14.5 83 1.7 NNW 6 11 3 6 1009.3 1009.3 0.0
05/05:30am 17.3 18.8 14.6 84 1.6 CALM 0 0 0 0 1009.2 1009.2 0.0
05/05:00am 17.1 18.6 14.6 85 1.4 CALM 0 0 0 0 1009.1 1009.1 0.0
05/04:30am 16.5 17.8 14.2 86 1.3 CALM 0 0 0 0 1009.2 1009.2 0.0
05/04:00am 16.9 18.3 14.4 85 1.4 CALM 0 0 0 0 1009.1 1009.1 0.0
05/03:30am 17.0 18.3 14.1 83 1.7 CALM 0 0 0 0 1009.3 1009.3 0.0
05/03:00am 17.1 18.1 14.4 84 1.5 NNW 2 7 1 4 1009.5 1009.5 0.0
05/02:30am 18.0 19.7 15.1 83 1.7 CALM 0 6 0 3 1009.7 1009.7 0.0
05/02:00am 18.0 19.7 15.1 83 1.7 CALM 0 0 0 0 1010.0 1010.0 0.0
05/01:30am 17.6 18.5 15.0 85 1.5 SW 4 9 2 5 1010.2 1010.2 0.0
05/01:00am 18.0 18.1 15.6 86 1.4 SW 9 15 5 8 1010.3 1010.3 0.0
05/12:30am 18.5 18.8 15.9 85 1.5 SW 9 13 5 7 1010.4 1010.4 0.0
05/12:00am 18.8 18.4 16.2 85 1.6 SW 13 17 7 9 1010.5 1010.5 0.0
 
Date/Time
EDT
Temp
°C
App
Temp
°C
Dew
Point
°C
Rel
Hum
%
Delta-T
°C
Wind Press
QNH
hPa
Press
MSL
hPa
Rain since
9am
mm
Dir  Spd
km/h
Gust
km/h
Spd
kts
Gust
kts
04/11:30pm 19.2 19.3 16.4 84 1.7 S 11 13 6 7 1010.5 1010.5 0.0
04/11:00pm 19.6 19.7 16.6 83 1.8 S 11 15 6 8 1010.6 1010.6 0.0
04/10:30pm 19.6 20.2 16.8 84 1.7 S 9 19 5 10 1010.6 1010.6 0.0
04/10:00pm 19.7 20.3 16.7 83 1.8 S 9 11 5 6 1010.4 1010.4 0.0
04/09:30pm 19.7 19.5 15.8 78 2.3 ESE 11 17 6 9 1010.1 1010.1 0.0
04/09:00pm 20.3 20.5 15.7 75 2.7 ESE 9 13 5 7 1009.7 1009.7 0.0
04/08:30pm 20.4 20.5 15.4 73 3.0 E 9 13 5 7 1009.2 1009.2 0.0
04/08:00pm 20.6 20.7 15.4 72 3.1 ENE 9 15 5 8 1009.1 1009.1 0.0
04/07:30pm 20.9 19.4 15.2 70 3.4 ENE 17 24 9 13 1008.6 1008.6 0.0
04/07:00pm 21.3 21.0 15.4 69 3.5 E 11 15 6 8 1008.2 1008.2 0.0
04/06:30pm 21.4 20.2 15.0 67 3.8 ESE 15 20 8 11 1007.6 1007.6 0.0
04/06:00pm 22.2 19.6 13.3 57 5.1 ESE 19 26 10 14 1006.9 1006.9 0.0
04/05:30pm 23.0 20.2 14.3 58 5.1 ESE 22 30 12 16 1006.4 1006.4 0.0
04/05:00pm 23.4 20.5 14.1 56 5.5 ESE 22 28 12 15 1006.1 1006.1 0.0
04/04:30pm 25.3 20.8 7.0 31 9.6 ESE 20 33 11 18 1005.9 1005.9 0.0
04/04:00pm 25.2 21.6 8.2 34 9.1 ENE 17 24 9 13 1006.0 1006.0 0.0
04/03:30pm 25.5 21.0 10.1 38 8.5 E 24 28 13 15 1006.0 1006.0 0.0
04/03:00pm 25.7 19.8 9.1 35 9.1 E 30 33 16 18 1005.8 1005.8 0.0
04/02:30pm 27.8 22.2 8.6 30 10.5 E 28 35 15 19 1005.6 1005.6 0.0
04/02:00pm 30.6 25.3 -3.2 11 15.4 WNW 15 32 8 17 1005.7 1005.7 0.0
04/01:30pm 30.1 24.6 -2.4 12 14.9 NW 17 26 9 14 1006.0 1006.0 0.0
04/01:00pm 29.4 23.5 -1.9 13 14.4 WNW 19 32 10 17 1006.5 1006.5 0.0
04/12:30pm 29.4 23.0 -1.9 13 14.4 NW 22 30 12 16 1006.9 1006.9 0.0
04/12:00pm 28.8 22.8 -1.3 14 14.0 WNW 20 26 11 14 1007.4 1007.4 0.0
04/11:30am 27.4 20.4 -0.6 16 13.0 NW 26 37 14 20 1007.8 1007.8 0.0
04/11:00am 27.1 21.7 2.2 20 12.1 NW 20 30 11 16 1008.3 1008.3 0.0
04/10:30am 26.4 21.0 2.3 21 11.7 WNW 20 33 11 18 1008.5 1008.5 0.0
04/10:00am 25.6 20.5 2.9 23 11.1 W 19 28 10 15 1008.8 1008.8 0.0
04/09:30am 24.3 20.9 4.1 27 10.0 W 11 19 6 10 1009.1 1009.1 0.0
04/09:00am 24.7 22.4 5.0 28 9.9 WNW 6 11 3 6 1009.0 1009.0 0.2
04/08:30am 24.2 21.5 5.5 30 9.5 NW 9 15 5 8 1009.0 1009.0 0.2
04/08:00am 22.8 19.5 4.8 31 8.9 NW 11 15 6 8 1008.9 1008.9 0.2
04/07:30am 22.0 18.4 5.0 33 8.4 NW 13 15 7 8 1008.9 1008.9 0.2
04/07:00am 20.9 17.7 5.3 36 7.7 NW 11 15 6 8 1008.7 1008.7 0.2
04/06:30am 20.0 16.5 5.3 38 7.2 NW 13 19 7 10 1008.4 1008.4 0.2
04/06:00am 19.5 15.6 5.2 39 7.0 NW 15 17 8 9 1008.1 1008.1 0.2
04/05:30am 19.4 15.4 5.1 39 7.0 NNW 15 17 8 9 1007.7 1007.7 0.2
04/05:00am 19.5 15.1 4.8 38 7.1 NNW 17 19 9 10 1007.5 1007.5 0.2
04/04:30am 19.4 14.6 4.4 37 7.2 NNW 19 24 10 13 1007.2 1007.2 0.2
04/04:00am 19.3 15.2 4.6 38 7.1 NNW 15 19 8 10 1007.3 1007.3 0.2
04/03:30am 20.2 13.7 4.7 36 7.5 W 28 33 15 18 1007.5 1007.5 0.2
04/03:00am 19.5 16.2 4.8 38 7.1 WSW 11 19 6 10 1007.5 1007.5 0.2
04/02:30am 19.7 15.6 4.6 37 7.3 W 15 19 8 10 1007.6 1007.6 0.2
04/02:00am 20.3 14.5 4.4 35 7.7 W 24 32 13 17 1007.5 1007.5 0.2
04/01:30am 21.1 14.1 4.2 33 8.2 W 30 35 16 19 1007.6 1007.6 0.2
04/01:00am 21.0 14.0 4.1 33 8.2 W 30 37 16 20 1007.7 1007.7 0.2
04/12:30am 21.4 14.8 4.0 32 8.4 WSW 28 35 15 19 1007.8 1007.8 0.2
04/12:00am 21.4 16.2 3.6 31 8.6 W 20 28 11 15 1007.8 1007.8 0.2
 
Date/Time
EDT
Temp
°C
App
Temp
°C
Dew
Point
°C
Rel
Hum
%
Delta-T
°C
Wind Press
QNH
hPa
Press
MSL
hPa
Rain since
9am
mm
Dir  Spd
km/h
Gust
km/h
Spd
kts
Gust
kts
03/11:30pm 21.7 16.4 2.9 29 8.9 W 20 28 11 15 1007.8 1007.8 0.2
03/11:00pm 21.8 16.6 2.5 28 9.1 SW 19 32 10 17 1007.9 1007.9 0.2
03/10:30pm 22.8 17.5 1.8 25 9.8 WSW 19 26 10 14 1007.5 1007.5 0.2
03/10:00pm 23.0 17.5 0.8 23 10.2 WSW 19 28 10 15 1007.0 1007.0 0.2
03/09:30pm 23.5 19.8 -0.1 21 10.7 WNW 9 15 5 8 1006.5 1006.5 0.2

Latest Capital City Observations: Canberra | Sydney | Melbourne | Brisbane | Adelaide | Perth | Hobart | Darwin

Other formats

Comma delimited format used in spreadsheet applications
http://www.bom.gov.au/fwo/IDN60901/IDN60901.94767.axf

JavaScript Object Notation format (JSON) in row-major order
http://www.bom.gov.au/fwo/IDN60901/IDN60901.94767.json

Data quality

Most of these data are generated automatically and are frequently updated. Quality checks on data are not normally performed. It is possible for incorrect values to appear. Refer to information at About Latest Weather Observations and please check the disclaimer before using these data.